• Join FlightAware (Why Join?)
  • Login
  • US Flag 
06:19PM EDT


 

Airport Tracker/Info


-or-


 

Live Flight TrackerFlight Track Log ✈ SWA3143 ✈ 12-Apr-2013 ✈ KBWI - KRDU

Flight Track Log - Related Links

Times and Time Zones

All times are in EDT time to prevent confusion due to time zone crossing. See the SWA3143 flight status page for this flight to view local times or setup timezone preferences in your user account.

Time Position Orientation Groundspeed Altitude Reporting Facility
EDT Latitude Longitude Course Direction KTS MPH feet Rate Location/Type
08:16PM 39.1333 -76.6333 142° Southeast 189 217 2,200  Level Potomac TRACON
08:17PM 39.0833 -76.5833 142° Southeast 213 245 4,700 2,520 Climbing Potomac TRACON
08:18PM 39.0500 -76.5333 131° Southeast 244 281 7,100 1,860 Climbing Potomac TRACON
08:19PM 38.9833 -76.4667 142° Southeast 302 348 8,300 2,400 Climbing Potomac TRACON
08:20PM 38.9000 -76.4500 171° South 279 321 12,000 1,740 Climbing Potomac TRACON
08:22PM 38.7511 -76.5419 206° Southwest 284 327 14,000 1,080 Climbing Washington Center
08:23PM 38.6778 -76.6100 216° Southwest 299 344 15,700 3,960 Climbing Washington Center
08:24PM 38.6103 -76.6731 216° Southwest 326 375 22,000 1,620 Climbing Washington Center
08:25PM 38.5242 -76.7433 213° Southwest 331 381 19,000 -420 Descending Washington Center
08:26PM 38.4342 -76.7897 202° Southwest 342 394 21,200 1,260 Climbing Washington Center
08:27PM 38.3461 -76.8306 200° South 348 400 21,600 -600 Climbing Washington Center
08:28PM 38.2539 -76.8847 205° Southwest 348 400 20,000 -840 Descending Washington Center
08:29PM 38.1761 -76.9308 205° Southwest 342 394 20,000  Level Washington Center
08:30PM 38.0922 -76.9794 205° Southwest 336 387 20,000  Level Washington Center
08:31PM 38.0083 -77.0281 205° Southwest 336 387 20,000  Level Washington Center
08:32PM 37.9222 -77.0739 203° Southwest 336 387 20,000  Level Washington Center
08:33PM 37.8381 -77.1247 206° Southwest 336 387 20,000  Level Washington Center
08:34PM 37.7619 -77.1967 217° Southwest 342 394 20,000  Level Washington Center
08:35PM 37.6900 -77.2767 221° Southwest 342 394 20,000  Level Washington Center
08:36PM 37.6222 -77.3564 223° Southwest 342 394 20,000  Level Washington Center
08:37PM 37.5522 -77.4333 221° Southwest 342 394 20,000  Level Washington Center
08:38PM 37.4842 -77.5128 223° Southwest 342 394 20,000  Level Washington Center
08:39PM 37.4078 -77.5997 222° Southwest 342 394 20,000  Level Washington Center
08:40PM 37.3314 -77.6708 217° Southwest 342 394 20,000  Level Washington Center
08:41PM 37.2511 -77.7314 211° Southwest 347 399 20,000  Level Washington Center
08:42PM 37.1564 -77.7756 200° South 352 405 20,000  Level Washington Center
08:43PM 37.0597 -77.8119 197° South 357 411 20,000  Level Washington Center
08:44PM 36.9631 -77.8508 198° South 370 426 20,000  Level Washington Center
08:45PM 36.8664 -77.8894 198° South 370 426 20,000 -240 Level Washington Center
08:46PM 36.7675 -77.9281 197° South 370 426 19,600 -720 Descending Washington Center
08:47PM 36.6750 -77.9667 199° South 365 420 18,600 -1,200 Descending Washington Center
08:48PM 36.5803 -78.0053 198° South 365 420 17,300 -1,200 Descending Washington Center
08:49PM 36.5425 -78.0194 197° South 353 406 17,000 -1,020 Descending Washington Center
08:49PM 36.4878 -78.0411 198° South 365 420 16,300 -1,620 Descending Washington Center
08:50PM 36.4225 -78.0700 200° South 343 395 14,900 -2,220 Descending Washington Center
08:50PM 36.4017 -78.0772 196° South 355 409 14,100 -2,220 Descending Washington Center
08:51PM 36.3364 -78.1008 196° South 330 380 12,700 -2,220 Descending Washington Center
08:51PM 36.3133 -78.1103 198° South 344 396 11,900 -1,920 Descending Washington Center
08:52PM 36.2522 -78.1367 199° South 319 367 10,800 -1,440 Descending Washington Center
08:52PM 36.2311 -78.1464 200° South 321 369 10,500 -660 Descending Washington Center
08:53PM 36.1700 -78.1728 199° South 259 298 10,100 -720 Descending Washington Center
08:54PM 36.1417 -78.2258 237° Southwest 207 238 9,300 -960 Descending Washington Center
08:54PM 36.1350 -78.2461 248° West 221 254 9,000 -1,140 Descending Washington Center
08:55PM 36.1106 -78.3122 245° Southwest 228 262 7,900 -1,260 Descending Washington Center
08:56PM 36.0861 -78.3806 246° West 249 287 6,800 -1,320 Descending Washington Center
08:56PM 36.0856 -78.3961 267° West 245 282 6,600 -1,020 Descending Washington Center
08:57PM 36.0656 -78.4519 246° West 240 276 5,900 3,360 Descending Washington Center
08:57PM 36.0631 -78.4697 260° West 245 282 10,000 -1,200 Climbing Washington Center
08:58PM 36.0450 -78.5258 248° West 227 261 4,700 -5,520 Descending Washington Center
08:58PM 36.0403 -78.5436 252° West 239 275 4,500 -600 Descending Washington Center
08:59PM 36.0247 -78.5917 248° West 211 243 4,100 -840 Descending Washington Center
09:00PM 35.9900 -78.6442 231° Southwest 197 227 3,100 -780 Descending Washington Center
09:01PM 35.9578 -78.6817 223° Southwest 181 208 2,600 -720 Descending Washington Center
09:02PM 35.9275 -78.7214 227° Southwest 143 165 1,800 -720 Descending Washington Center
09:03PM 35.9058 -78.7461 223° Southwest 105 121 1,200 -600 Descending Washington Center
09:04PM 35.8822 -78.7761 226° Southwest 122 140 600 -600 Descending Washington Center
09:06PM 35.8776 -78.7875 North  Level Estimated